createdAt,value
2019-06-01T00:00:54.220Z,18.10
2019-06-01T00:03:55.897Z,18.10
2019-06-01T00:06:57.420Z,18.10
2019-06-01T00:09:59.134Z,18.10
2019-06-01T00:13:00.775Z,18.00
2019-06-01T00:16:03.570Z,18.00
2019-06-01T00:19:06.218Z,18.00
2019-06-01T00:22:07.882Z,17.90
2019-06-01T00:25:09.558Z,17.90
2019-06-01T00:28:11.239Z,17.90
2019-06-01T00:31:13.326Z,17.90
2019-06-01T00:34:14.993Z,17.90
2019-06-01T00:37:16.762Z,17.90
2019-06-01T00:40:18.389Z,17.80
2019-06-01T00:43:20.015Z,17.80
2019-06-01T00:46:21.652Z,17.80
2019-06-01T00:49:23.258Z,17.80
2019-06-01T00:52:24.823Z,17.80
2019-06-01T00:55:26.423Z,17.80
2019-06-01T00:58:28.003Z,17.70
2019-06-01T01:01:29.600Z,17.70
2019-06-01T01:04:31.148Z,17.70
2019-06-01T01:07:32.774Z,17.70
2019-06-01T01:10:34.299Z,17.70
2019-06-01T01:13:35.923Z,17.60
2019-06-01T01:16:37.451Z,17.60
2019-06-01T01:19:39.048Z,17.50
2019-06-01T01:22:40.597Z,17.40
2019-06-01T01:25:42.104Z,17.40
2019-06-01T01:28:43.667Z,17.40
2019-06-01T01:31:45.211Z,17.40
2019-06-01T01:34:47.372Z,17.30
2019-06-01T01:37:49.995Z,17.30
2019-06-01T01:40:52.146Z,17.20
2019-06-01T01:43:54.608Z,17.20
2019-06-01T01:46:56.992Z,17.10
2019-06-01T01:49:58.610Z,17.10
2019-06-01T01:53:00.138Z,17.00
2019-06-01T01:56:01.684Z,17.00
2019-06-01T01:59:04.282Z,17.00
2019-06-01T02:02:06.164Z,16.90
2019-06-01T02:05:08.079Z,16.90
2019-06-01T02:08:10.560Z,16.90
2019-06-01T02:11:12.082Z,16.90
2019-06-01T02:14:13.616Z,16.90
2019-06-01T02:17:15.116Z,16.90
2019-06-01T02:20:16.662Z,16.90
2019-06-01T02:23:18.167Z,16.80
2019-06-01T02:26:19.704Z,16.80
2019-06-01T02:29:21.204Z,16.80
2019-06-01T02:32:22.751Z,16.80
2019-06-01T02:35:24.260Z,16.70
2019-06-01T02:38:25.757Z,16.70
2019-06-01T02:41:27.261Z,16.60
2019-06-01T02:44:29.898Z,16.60
2019-06-01T02:47:31.383Z,16.60
2019-06-01T02:50:32.961Z,16.60
2019-06-01T02:53:34.460Z,16.60
2019-06-01T02:56:35.993Z,16.50
2019-06-01T02:59:37.820Z,16.50
2019-06-01T03:02:40.392Z,16.50
2019-06-01T03:05:42.649Z,16.40
2019-06-01T03:08:46.691Z,16.40
2019-06-01T03:11:49.493Z,16.40
2019-06-01T03:14:53.067Z,16.30
2019-06-01T03:17:59.367Z,16.30
2019-06-01T03:21:05.044Z,16.30
2019-06-01T03:24:13.063Z,16.30
2019-06-01T03:27:16.853Z,16.30
2019-06-01T03:30:45.184Z,16.30
2019-06-01T03:33:43.894Z,16.30
2019-06-01T03:36:45.417Z,16.20
2019-06-01T03:39:46.959Z,16.20
2019-06-01T03:42:48.462Z,16.10
2019-06-01T03:45:50.045Z,16.10
2019-06-01T03:48:51.591Z,16.20
2019-06-01T03:51:53.089Z,16.20
2019-06-01T03:54:54.667Z,16.20
2019-06-01T03:57:56.152Z,16.20
2019-06-01T04:00:57.695Z,16.10
2019-06-01T04:03:59.241Z,16.10
2019-06-01T04:07:01.250Z,16.10
2019-06-01T04:10:03.893Z,16.20
2019-06-01T04:13:05.724Z,16.20
2019-06-01T04:16:07.915Z,16.20
2019-06-01T04:19:10.010Z,16.20
2019-06-01T04:22:14.365Z,16.10
2019-06-01T04:25:15.911Z,16.10
2019-06-01T04:28:17.395Z,16.10
2019-06-01T04:31:18.967Z,16.00
2019-06-01T04:34:20.456Z,16.10
2019-06-01T04:37:21.988Z,16.10
2019-06-01T04:40:23.476Z,16.10
2019-06-01T04:43:24.998Z,16.20
2019-06-01T04:46:26.520Z,16.20
2019-06-01T04:49:28.141Z,16.20
2019-06-01T04:52:29.623Z,16.20
2019-06-01T04:55:31.191Z,16.30
2019-06-01T04:58:32.702Z,16.30
2019-06-01T05:01:34.241Z,16.40
2019-06-01T05:04:35.792Z,16.50
2019-06-01T05:07:37.438Z,16.50
2019-06-01T05:10:39.004Z,16.50
2019-06-01T05:13:40.470Z,16.50
2019-06-01T05:16:42.029Z,16.60
2019-06-01T05:19:43.575Z,16.60
2019-06-01T05:22:45.097Z,16.70
2019-06-01T05:25:46.648Z,16.80
2019-06-01T05:28:48.172Z,16.80
2019-06-01T05:31:49.750Z,16.90
2019-06-01T05:34:51.293Z,17.00
2019-06-01T05:37:52.815Z,17.00
2019-06-01T05:40:54.311Z,17.10
2019-06-01T05:43:55.907Z,17.10
2019-06-01T05:46:57.452Z,17.20
2019-06-01T05:50:00.055Z,17.30
2019-06-01T05:53:01.607Z,17.30
2019-06-01T05:56:03.137Z,17.30
2019-06-01T05:59:04.683Z,17.40
2019-06-01T06:02:06.284Z,17.40
2019-06-01T06:05:08.152Z,17.40
2019-06-01T06:08:09.804Z,17.50
2019-06-01T06:11:11.366Z,17.60
2019-06-01T06:14:13.351Z,17.60
2019-06-01T06:17:17.389Z,17.70
2019-06-01T06:20:18.142Z,17.70
2019-06-01T06:23:20.557Z,17.80
2019-06-01T06:26:22.768Z,17.80
2019-06-01T06:29:24.678Z,17.90
2019-06-01T06:32:26.261Z,18.00
2019-06-01T06:35:27.813Z,18.00
2019-06-01T06:38:29.346Z,18.10
2019-06-01T06:41:30.859Z,18.10
2019-06-01T06:44:32.330Z,18.20
2019-06-01T06:47:33.897Z,18.30
2019-06-01T06:50:35.436Z,18.40
2019-06-01T06:53:36.928Z,18.40
2019-06-01T06:56:38.403Z,18.50
2019-06-01T06:59:39.903Z,18.60
2019-06-01T07:02:41.429Z,18.70
2019-06-01T07:05:42.992Z,18.70
2019-06-01T07:08:44.564Z,18.90
2019-06-01T07:11:46.076Z,18.90
2019-06-01T07:14:47.621Z,19.00
2019-06-01T07:17:49.137Z,19.20
2019-06-01T07:20:50.688Z,19.30
2019-06-01T07:23:52.188Z,19.40
2019-06-01T07:26:53.729Z,19.50
2019-06-01T07:29:55.250Z,19.70
2019-06-01T07:32:56.774Z,19.90
2019-06-01T07:35:58.307Z,20.00
2019-06-01T07:38:59.780Z,20.10
2019-06-01T07:42:03.051Z,20.30
2019-06-01T07:45:04.652Z,20.40
2019-06-01T07:48:06.254Z,20.40
2019-06-01T07:51:07.807Z,20.50
2019-06-01T07:54:11.005Z,20.70
2019-06-01T07:57:12.534Z,20.90
2019-06-01T08:00:14.886Z,21.10
2019-06-01T08:03:16.470Z,21.10
2019-06-01T08:06:18.020Z,21.30
2019-06-01T08:09:22.066Z,21.40
2019-06-01T08:12:23.278Z,21.50
2019-06-01T08:15:25.677Z,21.70
2019-06-01T08:18:28.194Z,21.90
2019-06-01T08:21:30.185Z,22.00
2019-06-01T08:24:32.444Z,22.10
2019-06-01T08:27:34.039Z,22.30
2019-06-01T08:30:35.591Z,22.40
2019-06-01T08:33:37.157Z,22.60
2019-06-01T08:36:38.767Z,22.70
2019-06-01T08:39:40.286Z,22.90
2019-06-01T08:42:42.040Z,23.00
2019-06-01T08:45:43.756Z,23.20
2019-06-01T08:48:45.415Z,23.30
2019-06-01T08:51:46.949Z,23.40
2019-06-01T08:54:48.531Z,23.60
2019-06-01T08:57:50.080Z,23.70
2019-06-01T09:00:51.937Z,23.90
2019-06-01T09:03:53.556Z,24.00
2019-06-01T09:06:55.183Z,24.10
2019-06-01T09:09:56.752Z,24.20
2019-06-01T09:12:58.304Z,24.30
2019-06-01T09:15:59.873Z,24.30
2019-06-01T09:19:01.555Z,24.50
2019-06-01T09:22:03.172Z,24.70
2019-06-01T09:25:05.053Z,24.80
2019-06-01T09:28:06.729Z,24.90
2019-06-01T09:31:08.364Z,25.00
2019-06-01T09:34:09.907Z,25.10
2019-06-01T09:37:11.620Z,25.20
2019-06-01T09:40:13.292Z,25.30
2019-06-01T09:43:15.037Z,25.40
2019-06-01T09:46:16.711Z,25.40
2019-06-01T09:49:18.365Z,25.40
2019-06-01T09:52:20.046Z,25.60
2019-06-01T09:55:21.766Z,25.60
2019-06-01T09:58:23.396Z,25.80
2019-06-01T10:01:24.882Z,26.00
2019-06-01T10:04:26.414Z,26.00
2019-06-01T10:07:29.166Z,26.10
2019-06-01T10:10:31.881Z,26.20
2019-06-01T10:13:34.732Z,26.30
2019-06-01T10:16:36.797Z,26.30
2019-06-01T10:19:38.871Z,26.40
2019-06-01T10:22:41.585Z,26.50
2019-06-01T10:25:44.182Z,26.60
2019-06-01T10:28:45.689Z,26.70
2019-06-01T10:31:47.195Z,26.80
2019-06-01T10:34:48.710Z,26.90
2019-06-01T10:37:50.324Z,26.80
2019-06-01T10:40:51.858Z,26.90
2019-06-01T10:43:53.347Z,27.10
2019-06-01T10:46:54.899Z,27.20
2019-06-01T10:49:56.417Z,27.30
2019-06-01T10:52:57.987Z,27.40
2019-06-01T10:55:59.509Z,27.30
2019-06-01T10:59:01.074Z,27.40
2019-06-01T11:02:03.697Z,27.40
2019-06-01T11:05:05.747Z,27.50
2019-06-01T11:08:07.348Z,27.50
2019-06-01T11:11:08.884Z,27.60
2019-06-01T11:14:10.491Z,27.70
2019-06-01T11:17:12.020Z,27.80
2019-06-01T11:20:13.857Z,27.90
2019-06-01T11:23:15.509Z,28.00
2019-06-01T11:26:19.143Z,28.10
2019-06-01T11:29:20.649Z,28.10
2019-06-01T11:32:22.190Z,28.20
2019-06-01T11:35:23.759Z,28.20
2019-06-01T11:38:25.371Z,28.30
2019-06-01T11:41:26.916Z,28.30
2019-06-01T11:44:28.451Z,28.30
2019-06-01T11:47:29.979Z,28.40
2019-06-01T11:50:31.509Z,28.40
2019-06-01T11:53:33.134Z,28.40
2019-06-01T11:56:35.160Z,28.30
2019-06-01T11:59:37.297Z,28.30
2019-06-01T12:02:39.683Z,28.40
2019-06-01T12:05:42.095Z,28.50
2019-06-01T12:08:44.105Z,28.60
2019-06-01T12:11:46.367Z,28.70
2019-06-01T12:14:48.088Z,28.70
2019-06-01T12:17:49.644Z,28.70
2019-06-01T12:20:51.157Z,28.70
2019-06-01T12:23:52.721Z,28.70
2019-06-01T12:26:54.245Z,28.70
2019-06-01T12:29:55.807Z,28.70
2019-06-01T12:32:57.301Z,28.80
2019-06-01T12:35:58.909Z,28.80
2019-06-01T12:39:00.433Z,28.70
2019-06-01T12:42:02.074Z,28.80
2019-06-01T12:45:03.616Z,28.90
2019-06-01T12:48:05.406Z,28.90
2019-06-01T12:51:06.954Z,28.80
2019-06-01T12:54:09.256Z,28.90
2019-06-01T12:57:10.800Z,28.90
2019-06-01T13:00:12.433Z,29.00
2019-06-01T13:03:14.022Z,29.00
2019-06-01T13:06:15.584Z,29.10
2019-06-01T13:09:17.126Z,29.10
2019-06-01T13:12:18.670Z,29.20
2019-06-01T13:15:20.172Z,29.20
2019-06-01T13:18:21.783Z,29.20
2019-06-01T13:21:23.312Z,29.30
2019-06-01T13:24:24.821Z,29.30
2019-06-01T13:27:26.381Z,29.30
2019-06-01T13:30:27.985Z,29.30
2019-06-01T13:33:29.538Z,29.30
2019-06-01T13:36:31.098Z,29.20
2019-06-01T13:39:32.589Z,29.20
2019-06-01T13:42:34.088Z,29.20
2019-06-01T13:45:35.582Z,29.20
2019-06-01T13:48:38.071Z,29.30
2019-06-01T13:51:39.888Z,29.20
2019-06-01T13:54:42.475Z,29.30
2019-06-01T13:57:44.287Z,29.30
2019-06-01T14:00:46.342Z,29.30
2019-06-01T14:03:49.248Z,29.40
2019-06-01T14:06:51.224Z,29.30
2019-06-01T14:09:53.750Z,29.30
2019-06-01T14:12:55.625Z,29.30
2019-06-01T14:20:55.872Z,29.30
2019-06-01T14:23:57.499Z,29.30
2019-06-01T14:27:00.090Z,29.30
2019-06-01T14:30:01.583Z,29.20
2019-06-01T14:33:03.192Z,29.30
2019-06-01T14:36:04.689Z,29.30
2019-06-01T14:39:08.106Z,29.30
2019-06-01T14:42:09.645Z,29.20
2019-06-01T14:45:11.677Z,29.30
2019-06-01T14:48:13.291Z,29.30
2019-06-01T14:51:14.821Z,29.30
2019-06-01T14:54:16.381Z,29.20
2019-06-01T14:57:17.990Z,29.30
2019-06-01T15:00:20.050Z,29.30
2019-06-01T15:03:21.555Z,29.30
2019-06-01T15:06:23.097Z,29.20
2019-06-01T15:09:24.669Z,29.20
2019-06-01T15:12:26.224Z,29.30
2019-06-01T15:15:27.735Z,29.30
2019-06-01T15:18:29.335Z,29.30
2019-06-01T15:21:30.846Z,29.30
2019-06-01T15:24:32.462Z,29.30
2019-06-01T15:27:34.010Z,29.30
2019-06-01T15:30:35.553Z,29.20
2019-06-01T15:33:37.122Z,29.20
2019-06-01T15:36:38.630Z,29.20
2019-06-01T15:39:40.162Z,29.20
2019-06-01T15:42:41.685Z,29.20
2019-06-01T15:45:43.178Z,29.20
2019-06-01T15:48:44.752Z,29.20
2019-06-01T15:51:46.323Z,29.20
2019-06-01T15:54:49.853Z,29.10
2019-06-01T15:57:52.192Z,29.10
2019-06-01T16:00:54.944Z,29.00
2019-06-01T16:03:57.265Z,29.00
2019-06-01T16:06:59.313Z,29.00
2019-06-01T16:10:06.453Z,29.00
2019-06-01T16:13:05.625Z,29.00
2019-06-01T16:16:07.309Z,28.90
2019-06-01T16:19:08.918Z,28.90
2019-06-01T16:22:10.441Z,28.90
2019-06-01T16:25:12.802Z,28.80
2019-06-01T16:28:14.314Z,28.80
2019-06-01T16:31:15.795Z,28.70
2019-06-01T16:34:17.313Z,28.70
2019-06-01T16:37:18.827Z,28.60
2019-06-01T16:40:20.472Z,28.60
2019-06-01T16:43:22.035Z,28.60
2019-06-01T16:46:23.544Z,28.60
2019-06-01T16:49:27.325Z,28.50
2019-06-01T16:52:28.320Z,28.50
2019-06-01T16:55:31.590Z,28.40
2019-06-01T16:58:33.255Z,28.40
2019-06-01T17:01:34.910Z,28.40
2019-06-01T17:04:36.378Z,28.40
2019-06-01T17:07:37.897Z,28.30
2019-06-01T17:10:39.502Z,28.30
2019-06-01T17:13:42.006Z,28.40
2019-06-01T17:16:43.533Z,28.30
2019-06-01T17:19:45.092Z,28.30
2019-06-01T17:22:46.618Z,28.20
2019-06-01T17:25:48.139Z,28.20
2019-06-01T17:28:49.752Z,28.20
2019-06-01T17:31:54.439Z,28.10
2019-06-01T17:34:54.558Z,28.10
2019-06-01T17:37:56.057Z,28.00
2019-06-01T17:40:58.653Z,27.90
2019-06-01T17:44:00.549Z,27.80
2019-06-01T17:47:02.174Z,27.80
2019-06-01T17:50:03.975Z,27.70
2019-06-01T17:53:06.773Z,27.70
2019-06-01T17:56:08.477Z,27.60
2019-06-01T17:59:10.167Z,27.60
2019-06-01T18:02:11.997Z,27.60
2019-06-01T18:05:13.872Z,27.50
2019-06-01T18:08:15.691Z,27.40
2019-06-01T18:11:17.376Z,27.40
2019-06-01T18:14:19.517Z,27.30
2019-06-01T18:17:21.044Z,27.20
2019-06-01T18:20:22.776Z,27.20
2019-06-01T18:23:24.377Z,27.10
2019-06-01T18:26:26.002Z,27.10
2019-06-01T18:29:27.588Z,27.00
2019-06-01T18:32:29.051Z,26.90
2019-06-01T18:35:32.213Z,26.90
2019-06-01T18:38:33.725Z,26.80
2019-06-01T18:41:35.257Z,26.70
2019-06-01T18:44:36.861Z,26.60
2019-06-01T18:47:38.891Z,26.50
2019-06-01T18:50:40.632Z,26.40
2019-06-01T18:53:42.223Z,26.40
2019-06-01T18:56:43.752Z,26.20
2019-06-01T18:59:45.269Z,26.10
2019-06-01T19:02:46.864Z,26.10
2019-06-01T19:05:48.353Z,26.00
2019-06-01T19:08:49.798Z,25.90
2019-06-01T19:11:51.348Z,25.90
2019-06-01T19:14:52.856Z,25.80
2019-06-01T19:17:54.356Z,25.70
2019-06-01T19:20:55.928Z,25.60
2019-06-01T19:23:57.472Z,25.60
2019-06-01T19:26:59.027Z,25.50
2019-06-01T19:30:00.648Z,25.40
2019-06-01T19:33:02.384Z,25.30
2019-06-01T19:36:06.943Z,25.20
2019-06-01T19:39:09.704Z,25.20
2019-06-01T19:42:11.440Z,25.10
2019-06-01T19:45:24.199Z,25.00
2019-06-01T19:48:16.720Z,25.00
2019-06-01T19:51:18.806Z,24.90
2019-06-01T19:54:21.516Z,24.80
2019-06-01T19:57:23.963Z,24.70
2019-06-01T20:00:26.698Z,24.50
2019-06-01T20:03:28.208Z,24.40
2019-06-01T20:06:29.803Z,24.30
2019-06-01T20:09:31.441Z,24.20
2019-06-01T20:12:32.985Z,24.10
2019-06-01T20:15:34.584Z,24.00
2019-06-01T20:18:36.181Z,24.00
2019-06-01T20:21:37.797Z,23.90
2019-06-01T20:24:39.351Z,23.90
2019-06-01T20:27:40.855Z,23.90
2019-06-01T20:30:42.464Z,23.80
2019-06-01T20:33:44.066Z,23.70
2019-06-01T20:36:45.605Z,23.50
2019-06-01T20:39:47.116Z,23.40
2019-06-01T20:42:48.627Z,23.30
2019-06-01T20:45:50.235Z,23.30
2019-06-01T20:48:51.881Z,23.30
2019-06-01T20:51:53.381Z,23.20
2019-06-01T20:54:54.929Z,23.10
2019-06-01T20:57:56.444Z,23.00
2019-06-01T21:00:57.945Z,23.00
2019-06-01T21:03:59.517Z,22.90
2019-06-01T21:07:01.040Z,22.90
2019-06-01T21:10:02.644Z,22.80
2019-06-01T21:13:07.769Z,22.80
2019-06-01T21:16:07.687Z,22.70
2019-06-01T21:19:09.221Z,22.70
2019-06-01T21:22:10.746Z,22.60
2019-06-01T21:25:12.439Z,22.50
2019-06-01T21:28:16.184Z,22.40
2019-06-01T21:31:17.269Z,22.30
2019-06-01T21:34:20.461Z,22.30
2019-06-01T21:37:22.058Z,22.30
2019-06-01T21:40:23.651Z,22.20
2019-06-01T21:43:34.972Z,22.20
2019-06-01T21:46:28.331Z,22.20
2019-06-01T21:49:29.891Z,22.10
2019-06-01T21:52:31.383Z,22.00
2019-06-01T21:55:32.908Z,21.90
2019-06-01T21:58:34.387Z,21.90
2019-06-01T22:01:35.916Z,21.80
2019-06-01T22:04:37.539Z,21.80
2019-06-01T22:07:39.053Z,21.70
2019-06-01T22:10:40.575Z,21.70
2019-06-01T22:13:42.066Z,21.60
2019-06-01T22:16:43.634Z,21.60
2019-06-01T22:19:45.141Z,21.50
2019-06-01T22:22:46.675Z,21.50
2019-06-01T22:25:48.172Z,21.40
2019-06-01T22:28:49.676Z,21.40
2019-06-01T22:31:51.190Z,21.40
2019-06-01T22:34:52.733Z,21.40
2019-06-01T22:37:54.848Z,21.40
2019-06-01T22:40:56.468Z,21.30
2019-06-01T22:43:57.943Z,21.30
2019-06-01T22:46:59.448Z,21.30
2019-06-01T22:50:00.918Z,21.30
2019-06-01T22:53:02.432Z,21.20
2019-06-01T22:56:03.978Z,21.20
2019-06-01T22:59:05.487Z,21.20
2019-06-01T23:02:07.128Z,21.20
2019-06-01T23:05:08.837Z,21.10
2019-06-01T23:08:10.375Z,21.10
2019-06-01T23:11:11.953Z,21.00
2019-06-01T23:14:13.461Z,21.00
2019-06-01T23:17:15.006Z,21.00
2019-06-01T23:20:16.685Z,20.90
2019-06-01T23:23:18.178Z,20.90
2019-06-01T23:26:19.686Z,20.90
2019-06-01T23:29:22.258Z,20.90
2019-06-01T23:32:24.534Z,20.90
2019-06-01T23:35:26.621Z,20.80
2019-06-01T23:38:28.676Z,20.80
2019-06-01T23:41:30.861Z,20.80
2019-06-01T23:44:35.030Z,20.70
2019-06-01T23:47:36.756Z,20.70
2019-06-01T23:50:38.256Z,20.80
2019-06-01T23:53:39.796Z,20.80
2019-06-01T23:56:41.292Z,20.80
2019-06-01T23:59:42.777Z,20.80
